Asian Games Village, India

10:57 AM IST on June 24, 2017 (GMT +0530)
New Delhi - GK2 | | Change Station

Elev 810 ft 28.53 °N, 77.24 °E | Updated 9 seconds ago

Haze
Haze
94.6 °F
Feels Like 114 °F
N
4.0
Wind Variable Wind from NNE
Gusts 7.0 mph

Today
High -- | Low -- °F
--% Chance of Precip.
Yesterday
High -- | Low -- °F
Precip. -- in
Pressure 29.56 in
Visibility 1.9 miles
Clouds
Heat Index 114 °F
Dew Point 80 °F
Humidity 62%
Rainfall 0.00 in
Snow Depth Not available.
5:24 AM 7:22 PM
New Moon, 0% visible
METAR VIDP 240500Z VRB02KT 3000 HZ NSC 34/23 Q1001 NOSIG
Pressure 29.56 in
Visibility 1.9 miles
Clouds
Heat Index 114 °F
Dew Point 80 °F
Humidity 62%
Rainfall 0.00 in
Snow Depth Not available.
5:24 AM 7:22 PM
New Moon, 0% visible
METAR VIDP 240500Z VRB02KT 3000 HZ NSC 34/23 Q1001 NOSIG

Get Severe Weather Alerts

Thanks for signing up!

Be on the lookout for a verification email in your inbox.

You'll start receiving the daily forecast at 6 AM.

×

10-Day Weather Forecast

No radar image for this location.
×

Almanac

Astronomy

Jun. 24, 2017 Rise Set
Actual Time
Civil Twilight
Nautical Twilight
Astronomical Twilight
Moon
Length of Visible Light
Length of Day
Tomorrow will be .
, % of the Moon is Illuminated

Today's Extremes

Country Highs Country Lows

Community

WunderPhotos

Category 6

Welcome to Category 6. This is the collective home for Weather Underground's featured writeups by Dr. Jeff Masters (right), Bob Henson (left), Chris Burt, and other regular contributors.

Nearby

Air Quality

  Air Quality AQ Index Pollutant
Not available.

Snow Depth

Station Depth Elevation

Earthquake Activity

City Distance Mag. Time & Date
Minimum magnitude displayed is 2.5.

Coastal Water Temperatures

Place Temperature

Stations

Nearby Weather Stations

Station Location Temp. Windchill Dew Point Humidity Wind Precip. Elev Updated Type